createdAt,value
2022-10-17T00:02:14.224Z,101201.78
2022-10-17T00:04:41.053Z,101206.97
2022-10-17T00:07:07.777Z,101206.03
2022-10-17T00:09:34.492Z,101202.41
2022-10-17T00:12:02.652Z,101203.06
2022-10-17T00:14:29.485Z,101205.53
2022-10-17T00:16:56.250Z,101205.38
2022-10-17T00:19:23.038Z,101212.16
2022-10-17T00:21:49.828Z,101207.75
2022-10-17T00:24:16.642Z,101204.22
2022-10-17T00:26:43.346Z,101205.81
2022-10-17T00:29:10.163Z,101205.00
2022-10-17T00:31:36.990Z,101205.03
2022-10-17T00:34:04.864Z,101201.50
2022-10-17T00:36:31.625Z,101196.22
2022-10-17T00:38:59.361Z,101191.84
2022-10-17T00:41:30.211Z,101198.00
2022-10-17T00:44:03.319Z,101198.81
2022-10-17T00:46:35.361Z,101203.16
2022-10-17T00:49:12.773Z,101197.97
2022-10-17T00:51:49.134Z,101202.31
2022-10-17T00:54:19.050Z,101198.84
2022-10-17T00:56:47.945Z,101202.44
2022-10-17T00:59:16.196Z,101199.84
2022-10-17T01:01:51.306Z,101194.69
2022-10-17T01:04:19.347Z,101186.03
2022-10-17T01:06:46.127Z,101186.91
2022-10-17T01:09:13.176Z,101181.63
2022-10-17T01:11:52.097Z,101184.13
2022-10-17T01:14:27.525Z,101185.88
2022-10-17T01:17:04.505Z,101179.78
2022-10-17T01:19:49.680Z,101179.75
2022-10-17T01:22:59.607Z,101170.06
2022-10-17T01:26:06.197Z,101177.94
2022-10-17T01:28:54.945Z,101187.59
2022-10-17T01:31:44.827Z,101189.41
2022-10-17T01:34:33.689Z,101186.84
2022-10-17T01:37:33.052Z,101192.09
2022-10-17T01:40:14.912Z,101185.94
2022-10-17T01:42:58.838Z,101184.13
2022-10-17T01:45:37.512Z,101178.78
2022-10-17T01:48:09.984Z,101175.16
2022-10-17T01:50:43.638Z,101170.59
2022-10-17T01:53:19.851Z,101168.66
2022-10-17T01:55:48.999Z,101169.56
2022-10-17T01:58:28.169Z,101167.03
2022-10-17T02:00:56.706Z,101177.59
2022-10-17T02:03:26.924Z,101185.50
2022-10-17T02:05:53.833Z,101190.88
2022-10-17T02:08:41.681Z,101206.66
2022-10-17T02:11:21.500Z,101193.59
2022-10-17T02:17:13.754Z,101176.91
2022-10-17T02:20:10.610Z,101173.31
2022-10-17T02:22:47.812Z,101166.25
2022-10-17T02:25:53.010Z,101153.97
2022-10-17T02:29:02.509Z,101157.53
2022-10-17T02:31:38.189Z,101160.16
2022-10-17T02:34:17.296Z,101169.81
2022-10-17T02:36:52.281Z,101171.59
2022-10-17T02:39:22.358Z,101175.13
2022-10-17T02:41:52.839Z,101180.47
2022-10-17T02:44:21.191Z,101177.16
2022-10-17T02:46:56.675Z,101182.50
2022-10-17T02:49:31.577Z,101189.56
2022-10-17T02:52:11.758Z,101190.56
2022-10-17T02:55:02.991Z,101188.88
2022-10-17T02:57:32.431Z,101200.25
2022-10-17T03:00:02.125Z,101202.09
2022-10-17T03:02:38.432Z,101205.69
2022-10-17T03:05:06.908Z,101205.75
2022-10-17T03:07:33.620Z,101205.91
2022-10-17T03:10:00.875Z,101202.47
2022-10-17T03:12:28.012Z,101210.38
2022-10-17T03:14:55.224Z,101214.81
2022-10-17T03:17:21.980Z,101220.09
2022-10-17T03:19:48.759Z,101214.94
2022-10-17T03:22:15.451Z,101215.78
2022-10-17T03:24:45.395Z,101222.78
2022-10-17T03:27:12.200Z,101229.72
2022-10-17T03:29:38.964Z,101237.56
2022-10-17T03:32:07.671Z,101249.69
2022-10-17T03:34:34.631Z,101247.00
2022-10-17T03:37:01.771Z,101245.97
2022-10-17T03:39:30.433Z,101258.03
2022-10-17T03:41:57.666Z,101262.28
2022-10-17T03:44:24.488Z,101253.38
2022-10-17T03:46:51.297Z,101252.28
2022-10-17T03:49:18.083Z,101256.31
2022-10-17T03:51:44.795Z,101244.84
2022-10-17T03:54:14.516Z,101247.19
2022-10-17T03:56:41.558Z,101243.50
2022-10-17T03:59:15.926Z,101247.81
2022-10-17T04:01:49.454Z,101248.59
2022-10-17T04:04:16.452Z,101252.84
2022-10-17T04:06:44.387Z,101249.31
2022-10-17T04:09:11.412Z,101243.19
2022-10-17T04:11:52.785Z,101226.47
2022-10-17T04:14:20.844Z,101225.38
2022-10-17T04:16:47.752Z,101227.84
2022-10-17T04:19:20.729Z,101226.09
2022-10-17T04:21:47.951Z,101216.44
2022-10-17T04:24:15.224Z,101218.03
2022-10-17T04:26:50.094Z,101218.03
2022-10-17T04:29:18.483Z,101205.97
2022-10-17T04:31:48.029Z,101204.38
2022-10-17T04:34:22.292Z,101226.31
2022-10-17T04:36:49.104Z,101233.41
2022-10-17T04:39:16.704Z,101221.44
2022-10-17T04:41:43.767Z,101226.88
2022-10-17T04:44:10.898Z,101223.66
2022-10-17T04:46:41.836Z,101222.91
2022-10-17T04:49:09.295Z,101223.03
2022-10-17T04:51:41.147Z,101231.97
2022-10-17T04:54:16.613Z,101233.91
2022-10-17T04:56:47.339Z,101234.16
2022-10-17T04:59:14.551Z,101247.66
2022-10-17T05:01:43.837Z,101249.84
2022-10-17T05:04:10.620Z,101252.00
2022-10-17T05:06:37.865Z,101254.97
2022-10-17T05:09:24.968Z,101247.53
2022-10-17T05:11:52.406Z,101246.88
2022-10-17T05:14:19.406Z,101244.38
2022-10-17T05:16:46.215Z,101237.41
2022-10-17T05:19:13.565Z,101238.34
2022-10-17T05:21:46.054Z,101240.19
2022-10-17T05:24:14.458Z,101239.44
2022-10-17T05:26:41.211Z,101249.13
2022-10-17T05:29:08.889Z,101240.44
2022-10-17T05:31:39.796Z,101240.56
2022-10-17T05:34:10.237Z,101234.50
2022-10-17T05:36:40.313Z,101233.72
2022-10-17T05:39:08.849Z,101232.09
2022-10-17T05:41:37.248Z,101236.50
2022-10-17T05:44:05.737Z,101245.25
2022-10-17T05:46:42.149Z,101248.78
2022-10-17T05:49:19.692Z,101248.78
2022-10-17T05:51:59.348Z,101254.78
2022-10-17T05:54:26.485Z,101253.84
2022-10-17T05:56:54.576Z,101257.28
2022-10-17T05:59:27.836Z,101253.69
2022-10-17T06:02:06.784Z,101263.34
2022-10-17T06:04:34.564Z,101259.72
2022-10-17T06:07:02.534Z,101260.50
2022-10-17T06:09:31.426Z,101262.16
2022-10-17T06:11:58.305Z,101247.09
2022-10-17T06:14:25.226Z,101253.94
2022-10-17T06:16:56.050Z,101261.63
2022-10-17T06:19:22.844Z,101261.38
2022-10-17T06:21:49.649Z,101258.56
2022-10-17T06:24:20.795Z,101265.31
2022-10-17T06:26:49.848Z,101266.50
2022-10-17T06:29:17.466Z,101271.44
2022-10-17T06:31:50.335Z,101278.94
2022-10-17T06:34:17.849Z,101279.88
2022-10-17T06:36:45.751Z,101281.88
2022-10-17T06:39:12.871Z,101283.97
2022-10-17T06:41:49.323Z,101274.72
2022-10-17T06:44:19.079Z,101274.59
2022-10-17T06:47:10.962Z,101267.22
2022-10-17T06:49:37.864Z,101263.47
2022-10-17T06:52:23.574Z,101260.72
2022-10-17T06:55:09.258Z,101253.34
2022-10-17T06:57:47.105Z,101262.56
2022-10-17T07:00:43.543Z,101260.78
2022-10-17T07:03:12.278Z,101261.16
2022-10-17T07:05:39.024Z,101263.66
2022-10-17T07:08:06.177Z,101273.50
2022-10-17T07:10:38.293Z,101281.50
2022-10-17T07:13:06.995Z,101286.50
2022-10-17T07:15:35.350Z,101289.72
2022-10-17T07:18:02.164Z,101291.47
2022-10-17T07:20:29.164Z,101289.63
2022-10-17T07:22:56.227Z,101286.03
2022-10-17T07:25:24.246Z,101277.75
2022-10-17T07:27:55.527Z,101278.34
2022-10-17T07:30:23.660Z,101271.75
2022-10-17T07:32:59.480Z,101259.66
2022-10-17T07:35:26.461Z,101247.59
2022-10-17T07:37:53.509Z,101238.09
2022-10-17T07:40:21.449Z,101239.78
2022-10-17T07:42:48.401Z,101244.44
2022-10-17T07:45:15.967Z,101243.50
2022-10-17T07:47:43.958Z,101238.38
2022-10-17T07:50:13.491Z,101244.56
2022-10-17T07:52:40.342Z,101243.75
2022-10-17T07:55:07.908Z,101239.63
2022-10-17T07:57:34.765Z,101251.31
2022-10-17T08:00:01.738Z,101238.69
2022-10-17T08:02:28.925Z,101237.22
2022-10-17T08:04:55.942Z,101238.59
2022-10-17T08:07:25.536Z,101239.34
2022-10-17T08:09:55.319Z,101246.72
2022-10-17T08:12:22.350Z,101253.34
2022-10-17T08:14:49.130Z,101254.13
2022-10-17T08:17:15.912Z,101250.06
2022-10-17T08:19:42.791Z,101246.47
2022-10-17T08:22:09.529Z,101240.59
2022-10-17T08:24:36.318Z,101237.94
2022-10-17T08:27:04.027Z,101230.97
2022-10-17T08:29:32.859Z,101226.50
2022-10-17T08:32:01.439Z,101219.53
2022-10-17T08:34:29.306Z,101224.97
2022-10-17T08:36:56.038Z,101220.94
2022-10-17T08:39:22.851Z,101215.69
2022-10-17T08:41:54.251Z,101209.97
2022-10-17T08:44:42.608Z,101199.56
2022-10-17T08:47:14.888Z,101195.78
2022-10-17T08:50:07.265Z,101197.88
2022-10-17T08:52:40.269Z,101193.19
2022-10-17T08:55:45.687Z,101205.34
2022-10-17T08:58:23.049Z,101203.31
2022-10-17T09:01:13.200Z,101211.94
2022-10-17T09:03:44.953Z,101207.28
2022-10-17T09:06:17.749Z,101209.09
2022-10-17T09:08:44.531Z,101209.53
2022-10-17T09:11:49.158Z,101211.59
2022-10-17T09:14:31.347Z,101214.06
2022-10-17T09:16:58.118Z,101207.56
2022-10-17T09:20:01.118Z,101210.53
2022-10-17T09:22:34.483Z,101201.09
2022-10-17T09:25:06.915Z,101204.88
2022-10-17T09:27:45.549Z,101208.63
2022-10-17T09:30:45.242Z,101206.75
2022-10-17T09:33:35.533Z,101209.34
2022-10-17T09:36:22.157Z,101209.84
2022-10-17T09:38:52.736Z,101205.53
2022-10-17T09:41:46.608Z,101215.97
2022-10-17T09:44:16.501Z,101211.88
2022-10-17T09:46:52.324Z,101206.41
2022-10-17T09:49:28.606Z,101200.69
2022-10-17T09:51:55.546Z,101187.97
2022-10-17T09:54:26.736Z,101174.16
2022-10-17T09:57:05.635Z,101186.59
2022-10-17T09:59:33.927Z,101179.19
2022-10-17T10:02:12.843Z,101173.41
2022-10-17T10:05:04.272Z,101171.66
2022-10-17T10:07:35.808Z,101169.34
2022-10-17T10:10:04.783Z,101175.22
2022-10-17T10:12:35.438Z,101183.50
2022-10-17T10:15:02.407Z,101180.13
2022-10-17T10:17:41.806Z,101186.13
2022-10-17T10:20:31.554Z,101200.91
2022-10-17T10:23:19.587Z,101198.13
2022-10-17T10:26:01.583Z,101196.22
2022-10-17T10:28:31.771Z,101195.47
2022-10-17T10:31:02.602Z,101189.28
2022-10-17T10:33:31.957Z,101191.97
2022-10-17T10:36:02.018Z,101185.50
2022-10-17T10:38:30.251Z,101177.88
2022-10-17T10:41:09.379Z,101179.91
2022-10-17T10:43:41.429Z,101175.75
2022-10-17T10:46:27.596Z,101185.56
2022-10-17T10:48:59.600Z,101187.16
2022-10-17T10:51:44.828Z,101184.31
2022-10-17T10:54:22.247Z,101177.19
2022-10-17T10:56:55.003Z,101180.78
2022-10-17T10:59:35.934Z,101168.50
2022-10-17T11:02:16.039Z,101170.06
2022-10-17T11:04:48.957Z,101164.22
2022-10-17T11:07:50.035Z,101152.66
2022-10-17T11:10:41.335Z,101147.78
2022-10-17T11:13:17.329Z,101154.41
2022-10-17T11:16:18.864Z,101152.47
2022-10-17T11:19:12.267Z,101151.13
2022-10-17T11:21:52.957Z,101147.81
2022-10-17T11:24:33.999Z,101157.72
2022-10-17T11:27:03.814Z,101153.00
2022-10-17T11:29:39.245Z,101152.72
2022-10-17T11:32:13.446Z,101152.72
2022-10-17T11:34:50.207Z,101147.97
2022-10-17T11:37:27.735Z,101133.06
2022-10-17T11:40:00.891Z,101126.78
2022-10-17T11:42:48.775Z,101128.44
2022-10-17T11:45:21.719Z,101124.25
2022-10-17T11:48:21.322Z,101114.19
2022-10-17T11:53:56.085Z,101123.22
2022-10-17T11:56:58.070Z,101123.41
2022-10-17T12:00:04.189Z,101113.16
2022-10-17T12:02:42.689Z,101126.66
2022-10-17T12:05:25.254Z,101124.06
2022-10-17T12:08:05.189Z,101117.34
2022-10-17T12:11:01.223Z,101116.19
2022-10-17T12:13:28.425Z,101111.09
2022-10-17T12:16:17.515Z,101109.13
2022-10-17T12:18:45.362Z,101112.56
2022-10-17T12:21:12.457Z,101109.44
2022-10-17T12:23:41.241Z,101110.78
2022-10-17T12:26:10.648Z,101115.72
2022-10-17T12:28:37.356Z,101117.69
2022-10-17T12:31:29.697Z,101111.84
2022-10-17T12:34:04.869Z,101107.25
2022-10-17T12:36:31.575Z,101107.91
2022-10-17T12:39:01.279Z,101107.72
2022-10-17T12:41:40.607Z,101104.91
2022-10-17T12:44:13.628Z,101112.41
2022-10-17T12:46:40.602Z,101116.47
2022-10-17T12:49:47.540Z,101115.25
2022-10-17T12:52:32.532Z,101115.09
2022-10-17T12:55:12.126Z,101107.50
2022-10-17T12:57:52.002Z,101101.41
2022-10-17T13:00:34.424Z,101101.00
2022-10-17T13:03:24.169Z,101101.47
2022-10-17T13:05:54.437Z,101099.94
2022-10-17T13:08:24.652Z,101114.19
2022-10-17T13:10:53.764Z,101109.84
2022-10-17T13:13:49.152Z,101100.25
2022-10-17T13:16:29.542Z,101113.94
2022-10-17T13:18:56.745Z,101105.97
2022-10-17T13:21:23.590Z,101109.28
2022-10-17T13:23:53.088Z,101104.97
2022-10-17T13:26:29.253Z,101105.97
2022-10-17T13:29:11.267Z,101103.06
2022-10-17T13:31:43.772Z,101104.13
2022-10-17T13:34:25.794Z,101108.81
2022-10-17T13:36:55.414Z,101114.91
2022-10-17T13:39:52.426Z,101109.13
2022-10-17T13:42:28.573Z,101107.50
2022-10-17T13:44:57.125Z,101108.44
2022-10-17T13:47:29.491Z,101096.84
2022-10-17T13:49:57.961Z,101104.25
2022-10-17T13:52:29.218Z,101107.31
2022-10-17T13:55:17.476Z,101102.97
2022-10-17T13:57:44.613Z,101100.53
2022-10-17T14:00:23.264Z,101092.16
2022-10-17T14:02:50.077Z,101087.94
2022-10-17T14:05:20.469Z,101095.13
2022-10-17T14:08:12.968Z,101088.06
2022-10-17T14:10:43.272Z,101093.78
2022-10-17T14:13:36.257Z,101092.22
2022-10-17T14:16:04.220Z,101094.09
2022-10-17T14:18:36.441Z,101092.81
2022-10-17T14:21:37.207Z,101097.78
2022-10-17T14:24:11.813Z,101083.72
2022-10-17T14:26:47.817Z,101083.50
2022-10-17T14:29:33.048Z,101094.59
2022-10-17T14:32:04.713Z,101089.94
2022-10-17T14:34:36.101Z,101086.22
2022-10-17T14:37:10.091Z,101090.50
2022-10-17T14:39:37.922Z,101093.81
2022-10-17T14:42:05.439Z,101083.94
2022-10-17T14:44:35.437Z,101090.59
2022-10-17T14:47:30.365Z,101097.38
2022-10-17T14:50:22.585Z,101098.84
2022-10-17T14:53:11.008Z,101105.56
2022-10-17T14:55:41.267Z,101114.13
2022-10-17T14:58:19.210Z,101110.97
2022-10-17T15:00:45.973Z,101112.25
2022-10-17T15:03:13.789Z,101103.06
2022-10-17T15:05:40.901Z,101110.59
2022-10-17T15:08:15.074Z,101115.50
2022-10-17T15:10:43.085Z,101106.16
2022-10-17T15:13:27.993Z,101114.66
2022-10-17T15:15:55.177Z,101121.50
2022-10-17T15:18:22.114Z,101119.22
2022-10-17T15:20:55.289Z,101125.66
2022-10-17T15:23:31.590Z,101129.66
2022-10-17T15:25:58.342Z,101134.44
2022-10-17T15:28:25.104Z,101138.34
2022-10-17T15:30:51.935Z,101137.84
2022-10-17T15:33:18.804Z,101143.50
2022-10-17T15:35:45.906Z,101135.03
2022-10-17T15:38:17.980Z,101139.00
2022-10-17T15:40:45.987Z,101146.41
2022-10-17T15:43:15.019Z,101145.81
2022-10-17T15:45:44.184Z,101160.19
2022-10-17T15:48:19.936Z,101156.91
2022-10-17T15:50:46.778Z,101153.59
2022-10-17T15:53:13.704Z,101148.50
2022-10-17T15:55:40.934Z,101157.53
2022-10-17T15:58:15.102Z,101156.00
2022-10-17T16:00:42.085Z,101151.72
2022-10-17T16:03:08.962Z,101156.31
2022-10-17T16:05:35.824Z,101152.06
2022-10-17T16:08:02.565Z,101151.25
2022-10-17T16:10:29.392Z,101154.13
2022-10-17T16:12:56.539Z,101148.94
2022-10-17T16:15:25.915Z,101151.03
2022-10-17T16:17:54.979Z,101150.25
2022-10-17T16:20:22.917Z,101142.44
2022-10-17T16:22:50.268Z,101150.50
2022-10-17T16:25:26.147Z,101148.91
2022-10-17T16:27:56.356Z,101147.41
2022-10-17T16:30:25.351Z,101153.75
2022-10-17T16:32:53.353Z,101145.03
2022-10-17T16:35:26.074Z,101149.47
2022-10-17T16:37:53.296Z,101149.56
2022-10-17T16:40:20.605Z,101144.34
2022-10-17T16:42:47.435Z,101146.25
2022-10-17T16:45:21.941Z,101151.56
2022-10-17T16:47:49.773Z,101151.66
2022-10-17T16:50:16.567Z,101146.47
2022-10-17T16:52:43.371Z,101149.25
2022-10-17T16:55:10.825Z,101147.66
2022-10-17T16:57:37.905Z,101148.66
2022-10-17T17:00:06.669Z,101152.31
2022-10-17T17:02:33.774Z,101144.50
2022-10-17T17:05:01.023Z,101147.25
2022-10-17T17:07:29.610Z,101150.88
2022-10-17T17:09:56.781Z,101144.78
2022-10-17T17:12:23.912Z,101143.13
2022-10-17T17:14:50.659Z,101145.84
2022-10-17T17:17:30.225Z,101137.13
2022-10-17T17:20:04.612Z,101143.41
2022-10-17T17:22:31.372Z,101136.44
2022-10-17T17:24:58.178Z,101140.94
2022-10-17T17:27:28.251Z,101141.03
2022-10-17T17:29:55.342Z,101136.72
2022-10-17T17:32:22.096Z,101136.72
2022-10-17T17:34:49.091Z,101137.59
2022-10-17T17:37:15.881Z,101132.31
2022-10-17T17:39:43.014Z,101137.66
2022-10-17T17:42:09.786Z,101142.91
2022-10-17T17:44:36.643Z,101145.59
2022-10-17T17:47:03.382Z,101144.72
2022-10-17T17:49:30.108Z,101150.03
2022-10-17T17:51:56.932Z,101136.84
2022-10-17T17:54:23.682Z,101143.94
2022-10-17T17:56:50.422Z,101138.78
2022-10-17T17:59:17.182Z,101142.19
2022-10-17T18:01:44.287Z,101146.66
2022-10-17T18:04:11.363Z,101147.56
2022-10-17T18:06:39.105Z,101144.09
2022-10-17T18:09:06.930Z,101147.63
2022-10-17T18:11:34.283Z,101145.91
2022-10-17T18:14:03.981Z,101138.94
2022-10-17T18:16:32.494Z,101142.56
2022-10-17T18:19:04.119Z,101139.19
2022-10-17T18:21:33.658Z,101136.63
2022-10-17T18:24:00.478Z,101131.41
2022-10-17T18:26:27.923Z,101144.75
2022-10-17T18:28:54.633Z,101142.16
2022-10-17T18:31:32.352Z,101150.16
2022-10-17T18:34:00.315Z,101139.72
2022-10-17T18:36:28.217Z,101140.72
2022-10-17T18:38:56.034Z,101147.88
2022-10-17T18:41:25.450Z,101150.59
2022-10-17T18:43:54.502Z,101151.53
2022-10-17T18:46:24.137Z,101147.19
2022-10-17T18:48:51.348Z,101155.19
2022-10-17T18:51:20.845Z,101156.09
2022-10-17T18:53:49.905Z,101158.81
2022-10-17T18:56:17.396Z,101152.72
2022-10-17T18:58:44.839Z,101157.13
2022-10-17T19:01:17.964Z,101156.25
2022-10-17T19:03:46.399Z,101154.50
2022-10-17T19:06:15.998Z,101152.78
2022-10-17T19:08:43.737Z,101158.03
2022-10-17T19:11:17.933Z,101151.03
2022-10-17T19:16:29.605Z,101149.34
2022-10-17T19:18:58.945Z,101155.59
2022-10-17T19:21:26.414Z,101149.38
2022-10-17T19:23:58.807Z,101148.53
2022-10-17T19:26:27.462Z,101149.47
2022-10-17T19:28:54.676Z,101144.19
2022-10-17T19:31:26.855Z,101147.69
2022-10-17T19:33:55.435Z,101149.44
2022-10-17T19:36:27.517Z,101143.31
2022-10-17T19:38:58.234Z,101151.25
2022-10-17T19:41:25.047Z,101138.97
2022-10-17T19:43:51.800Z,101152.13
2022-10-17T19:46:21.201Z,101147.78
2022-10-17T19:48:49.129Z,101136.38
2022-10-17T19:51:18.185Z,101132.84
2022-10-17T19:53:45.864Z,101139.91
2022-10-17T19:56:12.755Z,101146.13
2022-10-17T19:58:46.607Z,101150.53
2022-10-17T20:01:17.219Z,101148.81
2022-10-17T20:03:44.449Z,101150.56
2022-10-17T20:06:11.733Z,101151.47
2022-10-17T20:08:39.910Z,101140.00
2022-10-17T20:11:09.422Z,101147.06
2022-10-17T20:13:37.125Z,101156.75
2022-10-17T20:16:05.536Z,101148.88
2022-10-17T20:18:32.986Z,101147.13
2022-10-17T20:21:08.609Z,101146.25
2022-10-17T20:23:35.747Z,101147.16
2022-10-17T20:26:13.520Z,101144.56
2022-10-17T20:28:46.240Z,101142.91
2022-10-17T20:31:13.565Z,101143.78
2022-10-17T20:33:41.574Z,101148.16
2022-10-17T20:36:11.708Z,101151.72
2022-10-17T20:38:38.760Z,101149.13
2022-10-17T20:41:08.902Z,101144.78
2022-10-17T20:43:36.660Z,101154.44
2022-10-17T20:46:21.905Z,101153.59
2022-10-17T20:48:54.829Z,101158.91
2022-10-17T20:51:22.063Z,101165.13
2022-10-17T20:53:49.209Z,101164.28
2022-10-17T20:56:25.148Z,101155.53
2022-10-17T20:58:54.622Z,101162.59
2022-10-17T21:01:22.215Z,101155.59
2022-10-17T21:03:49.644Z,101160.88
2022-10-17T21:06:17.521Z,101164.41
2022-10-17T21:08:46.196Z,101157.38
2022-10-17T21:11:18.544Z,101162.69
2022-10-17T21:13:46.441Z,101162.72
2022-10-17T21:16:15.666Z,101159.25
2022-10-17T21:18:43.380Z,101151.34
2022-10-17T21:21:14.622Z,101149.59
2022-10-17T21:23:43.409Z,101149.59
2022-10-17T21:26:12.712Z,101146.09
2022-10-17T21:28:40.756Z,101148.75
2022-10-17T21:31:27.623Z,101151.34
2022-10-17T21:33:58.253Z,101153.13
2022-10-17T21:36:26.402Z,101149.56
2022-10-17T21:38:55.356Z,101141.69
2022-10-17T21:41:24.499Z,101146.06
2022-10-17T21:44:02.737Z,101146.97
2022-10-17T21:46:30.116Z,101136.50
2022-10-17T21:48:58.933Z,101140.88
2022-10-17T21:51:26.998Z,101138.25
2022-10-17T21:53:55.276Z,101133.91
2022-10-17T21:56:24.485Z,101135.69
2022-10-17T21:58:51.837Z,101127.78
2022-10-17T22:01:21.963Z,101135.72
2022-10-17T22:03:51.976Z,101125.25
2022-10-17T22:09:15.904Z,101134.94
2022-10-17T22:11:48.515Z,101142.91
2022-10-17T22:14:18.052Z,101136.78
2022-10-17T22:16:46.581Z,101132.47
2022-10-17T22:19:15.789Z,101129.84
2022-10-17T22:21:42.659Z,101136.91
2022-10-17T22:24:13.574Z,101138.72
2022-10-17T22:26:41.085Z,101129.06
2022-10-17T22:29:08.899Z,101125.56
2022-10-17T22:31:36.684Z,101132.59
2022-10-17T22:34:05.516Z,101128.22
2022-10-17T22:36:33.631Z,101127.38
2022-10-17T22:39:00.517Z,101119.47
2022-10-17T22:41:27.265Z,101116.84
2022-10-17T22:43:53.988Z,101115.97
2022-10-17T22:46:20.757Z,101107.22
2022-10-17T22:48:47.712Z,101107.25
2022-10-17T22:51:14.521Z,101101.13
2022-10-17T22:53:41.665Z,101102.91
2022-10-17T22:56:12.306Z,101106.38
2022-10-17T22:58:39.243Z,101111.69
2022-10-17T23:01:07.426Z,101125.69
2022-10-17T23:03:35.320Z,101118.69
2022-10-17T23:06:03.062Z,101116.06
2022-10-17T23:08:30.473Z,101115.22
2022-10-17T23:10:57.811Z,101117.91
2022-10-17T23:13:24.621Z,101119.63
2022-10-17T23:15:52.994Z,101124.91
2022-10-17T23:18:20.994Z,101126.69
2022-10-17T23:20:48.115Z,101117.94
2022-10-17T23:23:15.340Z,101117.09
2022-10-17T23:25:42.532Z,101124.09
2022-10-17T23:28:09.638Z,101122.38
2022-10-17T23:30:37.710Z,101128.53
2022-10-17T23:33:05.353Z,101128.53
2022-10-17T23:35:32.781Z,101132.94
2022-10-17T23:37:59.816Z,101134.72
2022-10-17T23:40:26.576Z,101137.31
2022-10-17T23:42:53.293Z,101119.78
2022-10-17T23:45:20.127Z,101121.50
2022-10-17T23:47:46.965Z,101115.38
2022-10-17T23:50:13.708Z,101120.66
2022-10-17T23:52:40.484Z,101116.31
2022-10-17T23:55:08.106Z,101115.41
2022-10-17T23:57:35.013Z,101110.16
